Time;durP1;ratioP1;P1;durP2;ratioP2;P2;SDS_P1;SDS_P2;PMS_P1;PMS_P2;Temp;Humidity;BMP_temperature;BMP_pressure;BME280_temperature;BME280_humidity;BME280_pressure;Samples;Min_cycle;Max_cycle;Signal;HPM_P1;HPM_P2
2023/05/05 07:15:10;;;;;;;14.07;10.82;;;21.60;99.90;;;;;;5109023;27;20485;-64
2023/05/05 07:17:35;;;;;;;8.55;7.70;;;21.10;99.90;;;;;;5106177;28;20223;-65
2023/05/05 07:20:01;;;;;;;9.35;8.23;;;21.10;99.90;;;;;;5086883;28;20197;-66
2023/05/05 07:22:27;;;;;;;14.10;9.38;;;21.20;99.90;;;;;;5089833;28;20620;-65
2023/05/05 07:24:53;;;;;;;11.15;8.75;;;21.20;99.90;;;;;;5109207;28;20513;-65
2023/05/05 07:27:19;;;;;;;9.48;8.43;;;21.00;99.90;;;;;;5109480;28;20219;-65
2023/05/05 07:29:45;;;;;;;9.10;8.15;;;21.20;99.90;;;;;;5107964;28;20185;-65
2023/05/05 07:32:11;;;;;;;9.15;8.23;;;21.30;99.90;;;;;;5108497;28;20173;-65
2023/05/05 07:34:36;;;;;;;10.95;8.25;;;21.50;99.90;;;;;;5088796;28;20232;-65
2023/05/05 07:37:03;;;;;;;8.90;7.88;;;21.90;99.90;;;;;;5088298;28;20732;-65
2023/05/05 07:39:30;;;;;;;9.07;7.68;;;22.20;99.90;;;;;;5104727;28;20630;-65
2023/05/05 07:41:55;;;;;;;12.85;7.63;;;22.40;99.90;;;;;;5108423;28;20165;-65
2023/05/05 07:44:21;;;;;;;9.70;7.90;;;22.40;99.90;;;;;;5106944;28;20181;-66
2023/05/05 07:46:46;;;;;;;9.38;7.70;;;22.60;99.90;;;;;;5108327;28;20189;-66
2023/05/05 07:49:12;;;;;;;8.32;7.07;;;22.70;99.90;;;;;;5095185;28;20308;-65
2023/05/05 07:51:38;;;;;;;8.85;7.10;;;22.80;99.90;;;;;;5087866;28;20244;-65
2023/05/05 07:54:04;;;;;;;7.82;7.10;;;22.90;99.90;;;;;;5098444;28;20294;-65
2023/05/05 07:56:29;;;;;;;8.07;7.28;;;23.00;99.90;;;;;;5108144;28;20191;-65
2023/05/05 07:58:55;;;;;;;12.20;7.05;;;23.20;99.90;;;;;;5099039;28;20165;-65
2023/05/05 08:01:21;;;;;;;6.05;5.53;;;23.40;99.90;;;;;;5087583;28;20639;-65
2023/05/05 08:03:46;;;;;;;6.78;6.10;;;23.50;99.90;;;;;;5094322;28;20189;-65
2023/05/05 08:06:14;;;;;;;7.00;6.22;;;23.70;99.90;;;;;;5108119;28;20197;-65
2023/05/05 08:08:41;;;;;;;7.82;6.50;;;23.80;99.90;;;;;;5094277;28;20170;-65
2023/05/05 08:11:06;;;;;;;7.57;6.88;;;24.00;99.90;;;;;;5094237;28;20310;-66
2023/05/05 08:13:32;;;;;;;7.22;6.53;;;24.10;99.90;;;;;;5090324;28;20288;-65
2023/05/05 08:15:58;;;;;;;8.38;7.50;;;24.00;99.90;;;;;;5087096;28;20591;-64
2023/05/05 08:18:25;;;;;;;8.18;7.35;;;23.90;99.90;;;;;;5087531;28;20170;-65
2023/05/05 08:20:51;;;;;;;10.88;8.57;;;23.80;99.90;;;;;;5087238;28;20237;-65
2023/05/05 08:23:17;;;;;;;8.15;7.35;;;23.60;99.90;;;;;;5087548;28;20224;-65
2023/05/05 08:25:43;;;;;;;10.50;8.77;;;23.70;99.90;;;;;;5077388;28;20197;-66
2023/05/05 08:28:08;;;;;;;9.32;8.20;;;23.80;99.90;;;;;;5072737;28;20177;-65
2023/05/05 08:30:35;;;;;;;9.07;7.63;;;24.00;99.90;;;;;;5077857;28;20228;-65
2023/05/05 08:33:00;;;;;;;9.13;6.97;;;24.00;99.90;;;;;;5094056;28;20231;-65
2023/05/05 08:35:26;;;;;;;8.50;7.65;;;24.10;99.90;;;;;;5093912;28;20497;-65
2023/05/05 08:37:51;;;;;;;9.80;8.13;;;24.40;99.90;;;;;;5093899;28;20184;-65
2023/05/05 08:40:19;;;;;;;8.15;7.28;;;24.30;99.90;;;;;;5093538;28;20199;-66
2023/05/05 08:42:45;;;;;;;8.93;7.70;;;24.40;99.90;;;;;;5093808;28;20512;-65
2023/05/05 08:45:11;;;;;;;9.82;8.30;;;24.80;99.90;;;;;;5093935;28;20189;-66
2023/05/05 08:47:37;;;;;;;7.38;6.70;;;24.80;99.90;;;;;;5093701;28;20170;-65
2023/05/05 08:50:04;;;;;;;7.50;6.40;;;25.00;99.90;;;;;;5093346;28;20169;-65
2023/05/05 08:52:42;;;;;;;7.97;6.18;;;24.80;99.90;;;;;;5090581;28;20193;-66
2023/05/05 08:55:12;;;;;;;8.27;7.03;;;25.10;99.90;;;;;;5093498;28;20200;-64
2023/05/05 08:57:45;;;;;;;7.05;6.45;;;25.40;99.90;;;;;;5092172;28;20169;-65
2023/05/05 09:00:12;;;;;;;7.63;6.72;;;25.20;99.90;;;;;;5090666;28;20166;-65
2023/05/05 09:02:39;;;;;;;9.02;7.60;;;25.10;99.90;;;;;;5082258;28;20189;-64
2023/05/05 09:05:05;;;;;;;9.25;7.70;;;25.30;99.90;;;;;;5093493;28;20193;-65
2023/05/05 09:07:33;;;;;;;6.65;5.82;;;25.80;99.90;;;;;;5077076;28;20185;-66
2023/05/05 09:10:02;;;;;;;7.72;5.95;;;26.60;99.90;;;;;;5071830;28;20205;-65
2023/05/05 09:12:30;;;;;;;6.50;5.90;;;26.80;99.90;;;;;;5073323;28;20174;-66
2023/05/05 09:14:56;;;;;;;11.15;8.23;;;27.00;99.90;;;;;;5072015;28;20623;-65
2023/05/05 09:17:25;;;;;;;7.32;6.65;;;27.30;99.90;;;;;;5078240;28;20175;-65
2023/05/05 09:20:02;;;;;;;7.78;6.45;;;27.50;99.90;;;;;;5092766;28;20616;-64
2023/05/05 09:22:33;;;;;;;6.90;6.30;;;27.50;99.90;;;;;;5087407;28;20613;-65
2023/05/05 09:24:58;;;;;;;6.95;5.95;;;27.20;99.90;;;;;;5072704;28;20170;-65
2023/05/05 09:27:24;;;;;;;6.93;6.07;;;27.00;99.90;;;;;;5076937;28;20578;-64
2023/05/05 09:29:50;;;;;;;6.95;5.78;;;27.20;99.90;;;;;;5091354;28;20622;-66
2023/05/05 09:32:16;;;;;;;6.18;5.43;;;27.50;99.90;;;;;;5082834;28;20619;-65
2023/05/05 09:34:42;;;;;;;7.25;5.43;;;28.10;99.90;;;;;;5083333;28;20204;-66
2023/05/05 09:37:07;;;;;;;7.25;6.53;;;28.80;99.90;;;;;;5091077;28;20178;-65
2023/05/05 09:39:33;;;;;;;6.68;5.93;;;29.10;99.90;;;;;;5090985;28;20587;-65
2023/05/05 09:41:58;;;;;;;8.23;5.72;;;29.60;99.90;;;;;;5072554;28;20170;-65
2023/05/05 09:44:35;;;;;;;7.40;6.80;;;30.20;99.90;;;;;;5072415;28;20639;-65
2023/05/05 09:47:01;;;;;;;6.68;6.07;;;30.80;99.90;;;;;;5092658;28;20200;-65
2023/05/05 09:49:27;;;;;;;6.65;5.40;;;31.40;99.90;;;;;;5092452;28;20162;-65
2023/05/05 09:51:54;;;;;;;6.25;5.63;;;31.30;99.90;;;;;;5072376;28;20251;-65
2023/05/05 09:54:26;;;;;;;5.53;5.05;;;31.50;99.90;;;;;;5090116;28;20767;-65
2023/05/05 09:56:52;;;;;;;4.97;4.47;;;31.60;99.90;;;;;;5092428;28;20202;-65
2023/05/05 09:59:19;;;;;;;7.20;5.68;;;30.80;99.90;;;;;;5074860;28;20178;-66
2023/05/05 10:01:45;;;;;;;7.05;6.50;;;30.10;99.90;;;;;;5071554;28;20257;-65
2023/05/05 10:04:24;;;;;;;6.00;5.60;;;29.90;99.90;;;;;;5087285;28;20184;-66
2023/05/05 10:06:50;;;;;;;5.30;4.72;;;29.80;99.90;;;;;;5092200;28;20196;-65
2023/05/05 10:09:16;;;;;;;6.82;4.93;;;29.40;99.90;;;;;;5088842;28;20184;-65
2023/05/05 10:11:43;;;;;;;7.13;6.50;;;28.70;99.90;;;;;;5091384;28;20177;-65
2023/05/05 10:14:13;;;;;;;6.45;6.05;;;28.40;99.90;;;;;;5091146;28;20265;-65
2023/05/05 10:16:47;;;;;;;8.40;7.28;;;28.20;99.90;;;;;;5087437;28;20281;-65
2023/05/05 10:19:15;;;;;;;6.15;5.70;;;28.20;99.90;;;;;;5071991;28;20193;-64
2023/05/05 10:21:45;;;;;;;6.63;6.13;;;27.90;99.90;;;;;;5075903;28;20701;-65
2023/05/05 10:24:47;;;;;;;5.18;4.68;;;27.40;99.90;;;;;;5088315;28;20233;-65
2023/05/05 10:27:18;;;;;;;5.15;4.68;;;27.00;99.90;;;;;;5072141;28;20530;-65
2023/05/05 10:30:10;;;;;;;4.65;4.25;;;26.70;99.90;;;;;;5078640;28;20195;-65
2023/05/05 10:32:43;;;;;;;5.28;4.65;;;26.70;99.90;;;;;;5089355;28;20189;-65
2023/05/05 10:35:10;;;;;;;6.40;5.72;;;26.30;99.90;;;;;;5081098;28;20571;-65
2023/05/05 10:37:36;;;;;;;6.47;5.75;;;26.00;99.90;;;;;;5070286;28;20180;-64
2023/05/05 10:40:03;;;;;;;4.57;4.28;;;25.30;99.90;;;;;;5079907;28;20182;-64
2023/05/05 10:42:29;;;;;;;7.30;4.70;;;24.90;99.90;;;;;;5089490;28;20204;-65
2023/05/05 10:44:54;;;;;;;7.35;4.88;;;24.20;99.90;;;;;;5090862;28;20298;-64
2023/05/05 10:47:21;;;;;;;5.97;5.45;;;23.40;99.90;;;;;;5091110;28;20215;-65
2023/05/05 10:50:02;;;;;;;7.07;6.38;;;22.60;99.90;;;;;;5090029;28;20199;-66
2023/05/05 10:52:28;;;;;;;7.55;5.75;;;21.60;99.90;;;;;;5088972;28;20184;-66
2023/05/05 10:55:26;;;;;;;5.88;5.47;;;20.90;99.90;;;;;;5069717;28;20690;-66
2023/05/05 10:57:52;;;;;;;7.47;6.05;;;20.20;99.90;;;;;;5075943;28;20169;-66
2023/05/05 11:00:37;;;;;;;6.93;6.28;;;19.70;99.90;;;;;;5090972;28;20623;-66
2023/05/05 11:03:18;;;;;;;8.43;7.57;;;19.40;99.90;;;;;;5085390;28;20174;-66
2023/05/05 11:06:02;;;;;;;8.68;7.95;;;19.10;99.90;;;;;;5071270;28;20198;-67
2023/05/05 11:08:54;;;;;;;9.48;8.68;;;18.90;99.90;;;;;;5084340;28;20208;-66
2023/05/05 11:12:00;;;;;;;9.97;9.07;;;18.70;99.90;;;;;;5089918;28;20192;-66
2023/05/05 11:14:26;;;;;;;15.17;14.10;;;18.40;99.90;;;;;;5077048;28;20212;-66
2023/05/05 11:16:53;;;;;;;10.13;9.20;;;18.20;99.90;;;;;;5090819;28;20182;-66
2023/05/05 11:19:40;;;;;;;13.20;10.70;;;18.00;99.90;;;;;;5070416;28;20170;-67
2023/05/05 11:22:06;;;;;;;17.33;13.70;;;17.80;99.90;;;;;;5086864;28;20172;-67
2023/05/05 11:24:32;;;;;;;15.60;9.77;;;17.60;99.90;;;;;;5076460;28;20174;-66
2023/05/05 11:26:57;;;;;;;10.87;8.90;;;17.40;99.90;;;;;;5070872;28;20205;-67
2023/05/05 11:29:23;;;;;;;10.67;9.77;;;17.30;99.90;;;;;;5083620;28;20512;-67
2023/05/05 11:32:12;;;;;;;12.27;10.97;;;17.20;99.90;;;;;;5091056;28;20181;-67
2023/05/05 11:34:49;;;;;;;13.80;10.07;;;17.20;99.90;;;;;;5076770;28;20655;-67
2023/05/05 11:37:16;;;;;;;10.43;9.43;;;17.20;99.90;;;;;;5071318;28;20166;-67
2023/05/05 11:40:10;;;;;;;9.27;8.47;;;17.20;99.90;;;;;;5084784;28;20178;-67
2023/05/05 11:42:36;;;;;;;9.60;8.80;;;17.20;99.90;;;;;;5082585;28;20177;-67
2023/05/05 11:45:17;;;;;;;9.77;9.13;;;17.10;99.90;;;;;;5073034;28;20213;-67
2023/05/05 11:47:43;;;;;;;7.60;7.07;;;16.90;99.90;;;;;;5070843;28;20174;-66
2023/05/05 11:50:17;;;;;;;8.03;7.43;;;16.60;99.90;;;;;;5087972;28;20181;-66
2023/05/05 11:52:42;;;;;;;8.13;7.33;;;16.40;99.90;;;;;;5091117;28;20181;-67
2023/05/05 11:55:09;;;;;;;7.63;6.90;;;16.30;99.90;;;;;;5073751;28;20213;-67
2023/05/05 11:57:34;;;;;;;11.80;10.93;;;16.40;99.90;;;;;;5075893;28;20174;-66
2023/05/05 12:00:05;;;;;;;9.00;8.20;;;16.60;99.90;;;;;;5081685;28;20191;-66
2023/05/05 12:02:30;;;;;;;9.03;8.40;;;17.10;99.90;;;;;;5094778;28;20177;-67
2023/05/05 12:04:57;;;;;;;10.20;9.40;;;17.40;99.90;;;;;;5092676;28;20178;-66
2023/05/05 12:07:28;;;;;;;8.47;7.87;;;17.70;99.90;;;;;;5093011;28;20374;-67
2023/05/05 12:09:54;;;;;;;8.07;7.30;;;17.90;99.90;;;;;;5080587;28;20182;-67
2023/05/05 12:12:20;;;;;;;7.85;7.20;;;18.30;99.90;;;;;;5074414;28;20695;-66
2023/05/05 12:14:51;;;;;;;7.00;6.43;;;18.60;99.90;;;;;;5085625;28;20303;-67
2023/05/05 12:17:21;;;;;;;6.50;5.97;;;19.00;99.90;;;;;;5076878;28;20260;-66
2023/05/05 12:19:54;;;;;;;7.38;6.50;;;19.30;99.90;;;;;;5073867;28;20206;-67
2023/05/05 12:22:19;;;;;;;8.10;7.70;;;19.50;99.90;;;;;;5075689;28;20170;-66
2023/05/05 12:24:55;;;;;;;9.35;8.65;;;19.70;99.90;;;;;;5076223;28;20185;-66
2023/05/05 12:27:21;;;;;;;11.85;11.20;;;20.20;99.90;;;;;;5084480;28;20188;-66
2023/05/05 12:29:46;;;;;;;14.10;13.40;;;20.60;99.90;;;;;;5075646;28;20188;-66
2023/05/05 12:32:24;;;;;;;10.05;9.45;;;21.10;99.90;;;;;;5078439;28;20631;-66
2023/05/05 12:34:56;;;;;;;12.70;12.10;;;21.50;99.90;;;;;;5094242;28;20654;-67
2023/05/05 12:37:23;;;;;;;9.20;8.75;;;21.70;99.90;;;;;;5094224;28;20230;-67
2023/05/05 12:39:50;;;;;;;22.65;21.50;;;22.00;99.90;;;;;;5093536;28;20256;-67
2023/05/05 12:42:16;;;;;;;9.48;8.98;;;22.20;99.90;;;;;;5094296;28;20174;-67
2023/05/05 12:44:45;;;;;;;5.97;5.53;;;22.30;99.90;;;;;;5086590;28;20719;-66
2023/05/05 12:47:11;;;;;;;5.82;5.32;;;22.40;99.90;;;;;;5086286;28;20185;-67
2023/05/05 12:49:47;;;;;;;6.20;5.65;;;22.40;99.90;;;;;;5093774;28;20169;-66
2023/05/05 12:52:15;;;;;;;5.80;5.30;;;22.30;99.90;;;;;;5093506;28;20175;-67
2023/05/05 12:54:57;;;;;;;7.80;7.13;;;22.20;99.90;;;;;;5092984;28;20288;-66
2023/05/05 12:57:24;;;;;;;12.43;11.57;;;22.00;99.90;;;;;;5073777;28;20268;-66
2023/05/05 12:59:51;;;;;;;9.15;6.72;;;21.90;99.90;;;;;;5077834;28;20658;-66
2023/05/05 13:02:17;;;;;;;7.18;6.47;;;21.80;99.90;;;;;;5073617;28;20179;-66
2023/05/05 13:04:52;;;;;;;8.20;7.50;;;21.80;99.90;;;;;;5089942;28;20177;-66
2023/05/05 13:07:19;;;;;;;7.20;6.68;;;22.10;99.90;;;;;;5093488;28;20203;-66
2023/05/05 13:09:47;;;;;;;6.60;6.10;;;22.30;99.90;;;;;;5092728;28;20175;-66
2023/05/05 13:12:13;;;;;;;6.57;6.07;;;22.50;99.90;;;;;;5093087;28;20177;-67
2023/05/05 13:14:39;;;;;;;10.43;9.63;;;22.60;99.90;;;;;;5074218;28;20201;-67
2023/05/05 13:17:05;;;;;;;5.15;4.82;;;22.70;99.90;;;;;;5072592;28;20635;-66
2023/05/05 13:19:31;;;;;;;4.00;3.70;;;22.50;99.90;;;;;;5087484;28;20211;-67
2023/05/05 13:21:57;;;;;;;7.50;7.20;;;22.00;99.90;;;;;;5087701;28;20223;-65
2023/05/05 13:24:24;;;;;;;5.13;4.82;;;21.60;99.90;;;;;;5086293;28;20174;-65
2023/05/05 13:26:50;;;;;;;5.13;4.88;;;21.40;99.90;;;;;;5072955;28;20200;-66
2023/05/05 13:29:16;;;;;;;4.30;3.90;;;21.20;99.90;;;;;;5072318;28;20300;-65
2023/05/05 13:31:43;;;;;;;3.95;3.75;;;21.10;99.90;;;;;;5072420;28;20253;-65
2023/05/05 13:34:08;;;;;;;4.70;4.40;;;20.90;99.90;;;;;;5072638;28;20296;-65
2023/05/05 13:36:34;;;;;;;7.15;4.43;;;20.90;99.90;;;;;;5072211;28;20325;-65
2023/05/05 13:39:01;;;;;;;4.20;3.80;;;20.90;99.90;;;;;;5072360;28;20177;-64
2023/05/05 13:41:26;;;;;;;4.30;4.00;;;20.80;99.90;;;;;;5072208;28;20184;-65
2023/05/05 13:43:52;;;;;;;3.80;3.55;;;20.80;99.90;;;;;;5072280;28;20265;-65
2023/05/05 13:46:18;;;;;;;3.65;3.45;;;20.90;99.90;;;;;;5082684;28;20201;-65
2023/05/05 13:48:43;;;;;;;4.97;4.60;;;21.00;99.90;;;;;;5092084;28;20189;-65
2023/05/05 13:51:09;;;;;;;4.88;4.57;;;21.00;99.90;;;;;;5088713;28;20186;-65
2023/05/05 13:53:35;;;;;;;3.80;3.60;;;21.00;99.90;;;;;;5092121;28;20240;-65
2023/05/05 13:56:04;;;;;;;5.75;5.28;;;21.20;99.90;;;;;;5074425;28;20202;-65
2023/05/05 13:58:29;;;;;;;4.78;4.25;;;21.10;99.90;;;;;;5073896;28;20639;-65
2023/05/05 14:00:55;;;;;;;4.10;3.90;;;21.00;99.90;;;;;;5090741;28;20174;-65
2023/05/05 14:03:22;;;;;;;3.75;3.45;;;20.90;99.90;;;;;;5072281;28;20184;-65
2023/05/05 14:05:49;;;;;;;4.10;3.50;;;20.90;99.90;;;;;;5071913;28;20220;-65
2023/05/05 14:08:16;;;;;;;4.65;4.35;;;20.90;99.90;;;;;;5073088;28;20253;-66
2023/05/05 14:10:42;;;;;;;4.30;4.00;;;20.90;99.90;;;;;;5084410;28;20192;-64
2023/05/05 14:13:08;;;;;;;3.92;3.72;;;20.90;99.90;;;;;;5084564;28;20194;-65
2023/05/05 14:15:33;;;;;;;4.38;4.03;;;21.00;99.90;;;;;;5071840;28;20690;-65
2023/05/05 14:17:59;;;;;;;3.95;3.75;;;20.90;99.90;;;;;;5086793;28;20268;-65
2023/05/05 14:20:26;;;;;;;7.07;4.65;;;20.80;99.90;;;;;;5091346;28;20170;-65
2023/05/05 14:22:53;;;;;;;6.57;6.28;;;20.70;99.90;;;;;;5076756;28;20185;-65
2023/05/05 14:25:19;;;;;;;8.10;6.22;;;20.60;99.90;;;;;;5085448;28;20213;-65
2023/05/05 14:27:45;;;;;;;5.55;5.25;;;20.40;99.90;;;;;;5087726;28;20234;-65
2023/05/05 14:30:11;;;;;;;5.88;5.47;;;20.20;99.90;;;;;;5088504;28;20178;-65
2023/05/05 14:32:36;;;;;;;4.38;4.15;;;20.00;99.90;;;;;;5090975;28;20307;-66
2023/05/05 14:35:02;;;;;;;5.32;4.82;;;19.80;99.90;;;;;;5079994;28;20318;-66
2023/05/05 14:37:28;;;;;;;7.65;7.15;;;19.30;99.90;;;;;;5090602;28;20173;-66
2023/05/05 14:39:53;;;;;;;36.13;34.37;;;18.60;99.90;;;;;;5091477;28;20177;-66
2023/05/05 14:42:19;;;;;;;43.83;41.83;;;17.80;99.90;;;;;;5091712;28;20169;-67
2023/05/05 14:44:45;;;;;;;5.90;5.43;;;17.10;99.90;;;;;;5081337;28;20177;-67
2023/05/05 14:47:11;;;;;;;8.60;8.20;;;16.10;99.90;;;;;;5077656;28;20650;-67
2023/05/05 14:49:36;;;;;;;8.10;7.53;;;15.40;99.90;;;;;;5089066;28;20185;-67
2023/05/05 14:52:02;;;;;;;8.60;8.10;;;15.20;99.90;;;;;;5090656;28;20181;-67
2023/05/05 14:54:27;;;;;;;8.90;8.53;;;14.80;99.90;;;;;;5091113;28;20208;-68
2023/05/05 14:56:54;;;;;;;4.30;4.13;;;14.40;99.90;;;;;;5088797;28;20200;-67
2023/05/05 14:59:19;;;;;;;4.33;4.13;;;14.20;99.90;;;;;;5087647;28;20178;-67
2023/05/05 15:01:45;;;;;;;4.10;4.00;;;13.90;99.90;;;;;;5074588;28;20169;-67
2023/05/05 15:04:10;;;;;;;4.70;4.50;;;14.00;99.90;;;;;;5081365;28;20177;-67
2023/05/05 15:06:36;;;;;;;4.80;4.50;;;14.00;99.90;;;;;;5077733;28;20205;-67
2023/05/05 15:09:02;;;;;;;4.90;4.70;;;14.10;99.90;;;;;;5075946;28;20185;-67
2023/05/05 15:11:28;;;;;;;4.67;4.47;;;14.10;99.90;;;;;;5091239;28;20165;-67
2023/05/05 15:13:53;;;;;;;4.73;4.53;;;14.20;99.90;;;;;;5091117;28;20205;-67
2023/05/05 15:16:19;;;;;;;4.13;4.00;;;14.20;99.90;;;;;;5090856;28;20193;-67
2023/05/05 15:18:45;;;;;;;4.33;4.13;;;14.40;99.90;;;;;;5080229;28;20182;-67
2023/05/05 15:21:11;;;;;;;5.90;5.60;;;14.60;99.90;;;;;;5070969;28;20170;-67
2023/05/05 15:23:36;;;;;;;3.77;3.67;;;14.90;99.90;;;;;;5080454;28;20206;-68
2023/05/05 15:26:02;;;;;;;4.17;4.00;;;15.10;99.90;;;;;;5074948;28;20198;-67
2023/05/05 15:28:28;;;;;;;4.67;4.47;;;15.40;99.90;;;;;;5071411;28;20185;-67
2023/05/05 15:30:53;;;;;;;10.73;4.13;;;15.60;99.90;;;;;;5085240;28;20647;-67
2023/05/05 15:33:19;;;;;;;4.13;3.93;;;15.60;99.90;;;;;;5088071;28;20204;-67
2023/05/05 15:35:44;;;;;;;3.93;3.83;;;15.70;99.90;;;;;;5072713;28;20193;-66
2023/05/05 15:38:10;;;;;;;3.60;3.50;;;15.80;99.90;;;;;;5075353;28;20182;-67
2023/05/05 15:40:36;;;;;;;4.63;4.43;;;15.90;99.90;;;;;;5074203;28;20162;-66
2023/05/05 15:43:01;;;;;;;4.10;3.97;;;16.00;99.90;;;;;;5094844;28;20173;-67
2023/05/05 15:45:27;;;;;;;4.33;4.13;;;15.90;99.90;;;;;;5095161;28;20189;-67
2023/05/05 15:47:53;;;;;;;4.57;4.37;;;15.80;99.90;;;;;;5075502;28;20270;-66
2023/05/05 15:50:18;;;;;;;4.70;4.50;;;15.70;99.90;;;;;;5073914;28;20170;-67
2023/05/05 15:52:45;;;;;;;3.80;3.70;;;15.60;99.90;;;;;;5082723;28;20178;-67
2023/05/05 15:55:10;;;;;;;4.67;4.37;;;15.60;99.90;;;;;;5087019;28;20204;-66
2023/05/05 15:57:38;;;;;;;4.97;4.67;;;15.70;99.90;;;;;;5094824;28;20177;-66
2023/05/05 16:00:05;;;;;;;4.53;4.33;;;15.90;99.90;;;;;;5080324;28;20186;-67
2023/05/05 16:02:30;;;;;;;6.60;6.10;;;16.00;99.90;;;;;;5094007;28;20173;-66
2023/05/05 16:04:56;;;;;;;4.30;4.00;;;16.10;99.90;;;;;;5093034;28;20188;-66
2023/05/05 16:07:21;;;;;;;6.73;6.43;;;16.30;99.90;;;;;;5091403;28;20581;-66
2023/05/05 16:09:47;;;;;;;7.07;6.77;;;16.10;99.90;;;;;;5073881;28;20667;-66
2023/05/05 16:12:13;;;;;;;5.20;5.00;;;16.00;99.90;;;;;;5085328;28;20184;-66
2023/05/05 16:14:38;;;;;;;4.90;4.70;;;16.10;99.90;;;;;;5094004;28;20609;-66
2023/05/05 16:17:04;;;;;;;4.20;4.00;;;16.00;99.90;;;;;;5077993;28;20410;-66
2023/05/05 16:19:30;;;;;;;4.30;4.10;;;16.10;99.90;;;;;;5076558;28;20169;-66
2023/05/05 16:21:55;;;;;;;4.47;4.27;;;16.10;99.90;;;;;;5074056;28;20656;-66
2023/05/05 16:24:21;;;;;;;5.03;4.83;;;16.10;99.90;;;;;;5089837;28;20185;-66
2023/05/05 16:26:47;;;;;;;4.27;4.07;;;16.20;99.90;;;;;;5092242;28;20206;-66
2023/05/05 16:29:13;;;;;;;3.70;3.60;;;16.40;99.90;;;;;;5090543;28;20184;-66
2023/05/05 16:31:38;;;;;;;4.40;4.20;;;16.50;99.90;;;;;;5088388;28;20173;-66
2023/05/05 16:34:04;;;;;;;5.03;4.77;;;16.60;99.90;;;;;;5085413;28;20208;-66
2023/05/05 16:36:30;;;;;;;4.73;4.53;;;16.70;99.90;;;;;;5092285;28;20224;-66
2023/05/05 16:38:56;;;;;;;4.30;4.10;;;16.60;99.90;;;;;;5086201;28;20188;-66
2023/05/05 16:41:22;;;;;;;4.70;4.50;;;16.50;99.90;;;;;;5088563;28;20182;-65
2023/05/05 16:43:48;;;;;;;3.67;3.57;;;16.50;99.90;;;;;;5085726;28;20182;-65
2023/05/05 16:46:14;;;;;;;3.90;3.80;;;16.40;99.90;;;;;;5080989;28;20205;-66
2023/05/05 16:48:40;;;;;;;3.80;3.70;;;16.10;99.90;;;;;;5093795;28;20272;-66
2023/05/05 16:51:05;;;;;;;4.00;3.90;;;15.90;99.90;;;;;;5072979;28;20186;-66
2023/05/05 16:53:31;;;;;;;6.07;5.63;;;15.70;99.90;;;;;;5073603;28;20194;-66
2023/05/05 16:55:57;;;;;;;6.40;6.00;;;15.60;99.90;;;;;;5090159;28;20254;-66
2023/05/05 16:58:23;;;;;;;6.20;5.80;;;15.50;99.90;;;;;;5093553;28;20169;-66
2023/05/05 17:00:49;;;;;;;6.77;6.17;;;15.50;99.90;;;;;;5080999;28;20708;-66
2023/05/05 17:03:16;;;;;;;6.50;6.10;;;15.50;99.90;;;;;;5092360;28;20198;-66
2023/05/05 17:05:42;;;;;;;7.93;7.20;;;15.50;99.90;;;;;;5090925;28;20205;-66
2023/05/05 17:08:10;;;;;;;7.73;7.23;;;15.40;99.90;;;;;;5091718;28;20638;-66
2023/05/05 17:10:36;;;;;;;6.40;5.90;;;15.40;99.90;;;;;;5092243;28;20170;-66
2023/05/05 17:13:02;;;;;;;7.00;6.60;;;15.30;99.90;;;;;;5093447;28;20181;-66
2023/05/05 17:15:27;;;;;;;8.67;8.00;;;15.30;99.90;;;;;;5082532;28;20202;-66
2023/05/05 17:17:53;;;;;;;11.67;10.67;;;15.30;99.90;;;;;;5073011;28;20170;-66
2023/05/05 17:20:19;;;;;;;10.50;9.63;;;15.20;99.90;;;;;;5079337;28;20268;-66
2023/05/05 17:22:45;;;;;;;10.23;9.33;;;15.20;99.90;;;;;;5071404;28;20200;-66
2023/05/05 17:25:11;;;;;;;12.53;10.57;;;15.10;99.90;;;;;;5079886;28;20280;-67
2023/05/05 17:27:36;;;;;;;14.17;11.00;;;14.90;99.90;;;;;;5092892;28;20208;-66
2023/05/05 17:30:02;;;;;;;15.37;13.13;;;14.80;99.90;;;;;;5087667;28;20174;-66
2023/05/05 17:32:28;;;;;;;18.67;12.90;;;14.70;99.90;;;;;;5072928;28;20242;-67
2023/05/05 17:34:55;;;;;;;14.53;12.60;;;14.60;99.90;;;;;;5076403;28;20201;-67
2023/05/05 17:37:20;;;;;;;15.37;13.40;;;14.50;99.90;;;;;;5093062;28;20200;-67
2023/05/05 17:39:46;;;;;;;17.30;12.57;;;14.50;99.90;;;;;;5089902;28;20205;-66
2023/05/05 17:42:11;;;;;;;18.27;14.37;;;14.50;99.90;;;;;;5071687;28;20170;-66
2023/05/05 17:44:37;;;;;;;14.83;13.33;;;14.40;99.90;;;;;;5073005;28;20186;-66
2023/05/05 17:47:06;;;;;;;15.63;14.00;;;14.40;99.90;;;;;;5092999;28;20189;-66
2023/05/05 17:49:33;;;;;;;17.03;15.23;;;14.50;99.90;;;;;;5092671;28;20185;-67
2023/05/05 17:51:59;;;;;;;15.60;14.03;;;14.50;99.90;;;;;;5091810;28;20174;-67
2023/05/05 17:54:25;;;;;;;16.77;13.20;;;14.50;99.90;;;;;;5092896;28;20224;-67
2023/05/05 17:56:50;;;;;;;16.90;14.10;;;14.60;99.90;;;;;;5090689;28;20213;-67
2023/05/05 17:59:16;;;;;;;17.30;13.33;;;14.60;99.90;;;;;;5090453;28;20169;-67
2023/05/05 18:01:42;;;;;;;16.23;11.53;;;14.60;99.90;;;;;;5090387;28;20177;-67
2023/05/05 18:04:07;;;;;;;16.43;11.50;;;14.60;99.90;;;;;;5092277;28;20291;-67
2023/05/05 18:06:33;;;;;;;17.93;11.97;;;14.60;99.90;;;;;;5076344;28;20237;-67
2023/05/05 18:08:59;;;;;;;14.87;11.70;;;14.60;99.90;;;;;;5072570;28;20174;-67
2023/05/05 18:11:27;;;;;;;13.33;11.50;;;14.70;99.90;;;;;;5071677;28;20166;-67
2023/05/05 18:13:54;;;;;;;14.57;11.33;;;14.70;99.90;;;;;;5070892;28;20201;-67
2023/05/05 18:16:20;;;;;;;13.77;11.63;;;14.60;99.90;;;;;;5072082;28;20194;-66
2023/05/05 18:18:45;;;;;;;13.00;11.57;;;14.60;99.90;;;;;;5071974;28;20634;-67
2023/05/05 18:21:11;;;;;;;15.13;11.57;;;14.60;99.90;;;;;;5071374;28;20178;-66
2023/05/05 18:23:40;;;;;;;16.53;11.97;;;14.70;99.90;;;;;;5071545;28;20170;-67
2023/05/05 18:26:07;;;;;;;15.83;11.80;;;14.70;99.90;;;;;;5071974;28;20202;-66
2023/05/05 18:28:32;;;;;;;18.43;13.97;;;14.70;99.90;;;;;;5072228;28;20174;-66
2023/05/05 18:30:58;;;;;;;13.63;12.17;;;14.80;99.90;;;;;;5071317;28;20232;-66
2023/05/05 18:33:23;;;;;;;18.10;11.50;;;14.80;99.90;;;;;;5072007;28;20244;-67
2023/05/05 18:35:49;;;;;;;15.10;12.93;;;14.80;99.90;;;;;;5071774;28;20658;-66
2023/05/05 18:38:15;;;;;;;21.30;12.17;;;14.70;99.90;;;;;;5071887;28;20232;-66
2023/05/05 18:40:41;;;;;;;15.90;13.00;;;14.60;99.90;;;;;;5090105;28;20169;-66
2023/05/05 18:43:06;;;;;;;19.27;12.90;;;14.50;99.90;;;;;;5091778;28;20197;-66
2023/05/05 18:45:32;;;;;;;17.77;13.17;;;14.50;99.90;;;;;;5091781;28;20192;-66
2023/05/05 18:47:58;;;;;;;17.80;12.57;;;14.40;99.90;;;;;;5086380;28;20181;-66
2023/05/05 18:50:24;;;;;;;15.27;12.20;;;14.40;99.90;;;;;;5071322;28;20169;-67
2023/05/05 18:52:49;;;;;;;15.47;12.13;;;14.30;99.90;;;;;;5074270;28;20631;-66
2023/05/05 18:55:15;;;;;;;17.97;12.70;;;14.30;99.90;;;;;;5091868;28;20197;-66
2023/05/05 18:57:40;;;;;;;14.67;11.80;;;14.30;99.90;;;;;;5091952;28;20581;-67
2023/05/05 19:00:06;;;;;;;17.57;12.73;;;14.30;99.90;;;;;;5091371;28;20244;-66
2023/05/05 19:02:32;;;;;;;20.87;13.47;;;14.20;99.90;;;;;;5091279;28;20554;-67
2023/05/05 19:04:58;;;;;;;17.90;12.93;;;14.20;99.90;;;;;;5071049;28;20266;-66
2023/05/05 19:07:23;;;;;;;20.07;13.00;;;14.20;99.90;;;;;;5071395;28;20170;-66
2023/05/05 19:09:49;;;;;;;17.47;12.43;;;14.20;99.90;;;;;;5089321;28;20181;-66
2023/05/05 19:12:15;;;;;;;20.43;13.63;;;14.20;99.90;;;;;;5090359;28;20195;-66
2023/05/05 19:14:40;;;;;;;14.30;12.30;;;14.10;99.90;;;;;;5074784;28;20216;-67
2023/05/05 19:17:06;;;;;;;13.67;12.10;;;14.10;99.90;;;;;;5071111;28;20185;-66
2023/05/05 19:19:31;;;;;;;17.43;12.67;;;14.10;99.90;;;;;;5071237;28;20162;-66
2023/05/05 19:21:57;;;;;;;15.83;11.23;;;14.00;99.90;;;;;;5071249;28;20181;-66
2023/05/05 19:24:22;;;;;;;17.47;12.87;;;14.00;99.90;;;;;;5083957;28;20681;-66
2023/05/05 19:26:48;;;;;;;16.10;12.50;;;14.00;99.90;;;;;;5091389;28;20189;-66
2023/05/05 19:29:14;;;;;;;16.23;12.30;;;14.00;99.90;;;;;;5089119;28;20207;-66
2023/05/05 19:31:40;;;;;;;17.33;11.90;;;13.90;99.90;;;;;;5091668;28;20256;-66
2023/05/05 19:34:06;;;;;;;16.47;13.40;;;13.80;99.90;;;;;;5081604;28;20685;-66
2023/05/05 19:36:32;;;;;;;16.23;12.60;;;13.70;99.90;;;;;;5071076;28;20231;-66
2023/05/05 19:39:02;;;;;;;17.87;12.23;;;13.60;99.90;;;;;;5078759;28;20173;-66
2023/05/05 19:41:29;;;;;;;19.10;13.53;;;13.50;99.90;;;;;;5090975;28;20629;-66
2023/05/05 19:43:55;;;;;;;16.40;13.87;;;13.40;99.90;;;;;;5090566;28;20170;-66
2023/05/05 19:46:24;;;;;;;23.63;13.50;;;13.40;99.90;;;;;;5091146;28;20359;-66
2023/05/05 19:48:49;;;;;;;21.90;13.57;;;13.40;99.90;;;;;;5085726;28;20167;-66
2023/05/05 19:51:15;;;;;;;19.80;13.20;;;13.40;99.90;;;;;;5069922;28;20182;-66
2023/05/05 19:53:41;;;;;;;18.93;13.60;;;13.40;99.90;;;;;;5070921;28;20272;-66
2023/05/05 19:56:07;;;;;;;19.20;14.17;;;13.30;99.90;;;;;;5070835;28;20568;-66